createdAt,value
2018-04-15T00:00:11.041Z,7.48
2018-04-15T00:01:11.043Z,7.45
2018-04-15T00:02:11.014Z,7.39
2018-04-15T00:03:11.265Z,7.49
2018-04-15T00:04:11.261Z,7.44
2018-04-15T00:05:11.243Z,7.44
2018-04-15T00:06:10.710Z,7.45
2018-04-15T00:07:10.952Z,7.4
2018-04-15T00:08:11.205Z,7.45
2018-04-15T00:09:10.940Z,7.41
2018-04-15T00:10:11.181Z,7.45
2018-04-15T00:11:11.171Z,7.44
2018-04-15T00:12:11.158Z,7.34
2018-04-15T00:13:11.143Z,7.34
2018-04-15T00:14:11.130Z,7.34
2018-04-15T00:15:10.607Z,7.3
2018-04-15T00:16:10.591Z,7.39
2018-04-15T00:17:10.584Z,7.39
2018-04-15T00:18:11.088Z,7.4
2018-04-15T00:19:10.825Z,7.4
2018-04-15T00:20:11.060Z,7.37
2018-04-15T00:21:10.793Z,7.34
2018-04-15T00:22:10.783Z,7.54
2018-04-15T00:23:11.035Z,7.33
2018-04-15T00:24:11.014Z,7.37
2018-04-15T00:25:10.746Z,7.4
2018-04-15T00:26:10.741Z,7.4
2018-04-15T00:27:10.731Z,7.45
2018-04-15T00:28:10.975Z,7.4
2018-04-15T00:29:10.442Z,7.47
2018-04-15T00:30:10.686Z,7.45
2018-04-15T00:31:10.676Z,7.48
2018-04-15T00:32:10.922Z,7.51
2018-04-15T00:33:10.920Z,7.52
2018-04-15T00:34:10.945Z,7.51
2018-04-15T00:35:10.891Z,7.55
2018-04-15T00:36:10.887Z,7.49
2018-04-15T00:37:10.604Z,7.48
2018-04-15T00:38:10.593Z,7.54
2018-04-15T00:39:10.844Z,7.52
2018-04-15T00:40:10.567Z,7.48
2018-04-15T00:41:10.557Z,7.54
2018-04-15T00:42:10.801Z,7.54
2018-04-15T00:43:10.786Z,7.52
2018-04-15T00:44:10.264Z,7.54
2018-04-15T00:45:10.510Z,7.54
2018-04-15T00:46:10.795Z,7.61
2018-04-15T00:47:10.490Z,7.54
2018-04-15T00:48:10.478Z,7.54
2018-04-15T00:49:10.204Z,7.49
2018-04-15T00:50:10.189Z,7.48
2018-04-15T00:51:10.696Z,7.49
2018-04-15T00:52:10.425Z,7.59
2018-04-15T00:53:10.410Z,7.49
2018-04-15T00:54:10.403Z,7.49
2018-04-15T00:55:10.651Z,7.54
2018-04-15T00:56:10.635Z,7.55
2018-04-15T00:57:10.371Z,7.48
2018-04-15T00:58:10.354Z,7.58
2018-04-15T00:59:10.610Z,7.49
2018-04-15T01:00:10.076Z,7.47
2018-04-15T01:01:10.584Z,7.51
2018-04-15T01:02:10.575Z,7.54
2018-04-15T01:03:10.556Z,7.48
2018-04-15T01:04:10.550Z,7.47
2018-04-15T01:05:10.535Z,7.39
2018-04-15T01:06:10.527Z,7.49
2018-04-15T01:07:10.249Z,7.4
2018-04-15T01:08:10.241Z,7.45
2018-04-15T01:09:10.485Z,7.39
2018-04-15T01:10:10.215Z,7.52
2018-04-15T01:11:10.203Z,7.45
2018-04-15T01:12:10.197Z,7.4
2018-04-15T01:13:10.489Z,7.41
2018-04-15T01:14:10.429Z,7.41
2018-04-15T01:15:10.413Z,7.48
2018-04-15T01:16:10.409Z,7.41
2018-04-15T01:17:10.426Z,7.37
2018-04-15T01:18:10.126Z,7.34
2018-04-15T01:19:10.368Z,7.39
2018-04-15T01:20:10.358Z,7.48
2018-04-15T01:21:10.356Z,7.41
2018-04-15T01:22:10.069Z,7.41
2018-04-15T01:23:10.320Z,7.4
2018-04-15T01:24:09.790Z,7.4
2018-04-15T01:25:10.298Z,7.33
2018-04-15T01:26:10.291Z,7.41
2018-04-15T01:27:10.273Z,7.34
2018-04-15T01:28:09.999Z,7.34
2018-04-15T01:29:10.245Z,7.3
2018-04-15T01:30:10.237Z,7.3
2018-04-15T01:31:10.261Z,7.26
2018-04-15T01:32:09.960Z,7.22
2018-04-15T01:33:09.942Z,7.16
2018-04-15T01:34:10.187Z,7.29
2018-04-15T01:35:10.183Z,7.26
2018-04-15T01:36:09.914Z,7.22
2018-04-15T01:37:09.897Z,7.09
2018-04-15T01:38:09.625Z,7.12
2018-04-15T01:39:09.617Z,7.04
2018-04-15T01:40:10.114Z,7.08
2018-04-15T01:41:10.106Z,7.12
2018-04-15T01:42:09.834Z,7.18
2018-04-15T01:43:09.824Z,7.13
2018-04-15T01:44:09.809Z,7.12
2018-04-15T01:45:09.797Z,7.18
2018-04-15T01:46:10.046Z,7.22
2018-04-15T01:47:10.030Z,7.18
2018-04-15T01:48:10.023Z,7.16
2018-04-15T01:49:10.014Z,7.21
2018-04-15T01:50:09.741Z,7.11
2018-04-15T01:51:09.986Z,7.13
2018-04-15T01:52:09.457Z,7.13
2018-04-15T01:53:09.970Z,7.09
2018-04-15T01:54:09.695Z,7.01
2018-04-15T01:55:09.944Z,7
2018-04-15T01:56:09.666Z,7
2018-04-15T01:57:09.921Z,6.94
2018-04-15T01:58:09.901Z,6.91
2018-04-15T01:59:09.895Z,6.85
2018-04-15T02:00:09.626Z,6.85
2018-04-15T02:01:09.868Z,6.85
2018-04-15T02:02:09.852Z,6.88
2018-04-15T02:03:09.583Z,6.8
2018-04-15T02:04:09.834Z,6.7
2018-04-15T02:05:09.561Z,6.68
2018-04-15T02:06:09.806Z,6.67
2018-04-15T02:07:09.798Z,6.7
2018-04-15T02:08:09.523Z,6.7
2018-04-15T02:09:09.768Z,6.65
2018-04-15T02:10:09.755Z,6.67
2018-04-15T02:11:09.746Z,6.61
2018-04-15T02:12:09.733Z,6.67
2018-04-15T02:13:09.721Z,6.62
2018-04-15T02:14:09.449Z,6.65
2018-04-15T02:15:09.440Z,6.64
2018-04-15T02:16:09.691Z,6.72
2018-04-15T02:17:09.412Z,6.72
2018-04-15T02:18:09.666Z,6.7
2018-04-15T02:19:09.389Z,6.7
2018-04-15T02:20:09.381Z,6.7
2018-04-15T02:21:09.364Z,6.68
2018-04-15T02:22:09.615Z,6.62
2018-04-15T02:23:09.599Z,6.67
2018-04-15T02:24:09.591Z,6.6
2018-04-15T02:25:09.317Z,6.62
2018-04-15T02:26:09.045Z,6.7
2018-04-15T02:27:09.550Z,6.7
2018-04-15T02:28:09.279Z,6.75
2018-04-15T02:29:09.527Z,6.68
2018-04-15T02:30:09.258Z,6.65
2018-04-15T02:31:08.983Z,6.57
2018-04-15T02:32:09.228Z,6.57
2018-04-15T02:33:09.485Z,6.55
2018-04-15T02:34:09.466Z,6.58
2018-04-15T02:35:09.460Z,6.49
2018-04-15T02:36:09.449Z,6.49
2018-04-15T02:37:09.432Z,6.42
2018-04-15T02:38:09.159Z,6.51
2018-04-15T02:39:09.422Z,6.47
2018-04-15T02:40:09.415Z,6.39
2018-04-15T02:41:09.373Z,6.39
2018-04-15T02:42:09.105Z,6.36
2018-04-15T02:43:08.842Z,6.34
2018-04-15T02:44:09.088Z,6.4
2018-04-15T02:45:09.326Z,6.36
2018-04-15T02:46:09.323Z,6.34
2018-04-15T02:47:09.305Z,6.33
2018-04-15T02:48:09.305Z,6.31
2018-04-15T02:49:09.279Z,6.34
2018-04-15T02:50:09.013Z,6.29
2018-04-15T02:51:09.007Z,6.2
2018-04-15T02:52:09.240Z,6.2
2018-04-15T02:53:08.972Z,6.2
2018-04-15T02:54:09.223Z,6.18
2018-04-15T02:55:09.200Z,6.17
2018-04-15T02:56:09.197Z,6.2
2018-04-15T02:57:09.178Z,6.21
2018-04-15T02:58:08.910Z,6.26
2018-04-15T02:59:08.634Z,6.26
2018-04-15T03:00:09.151Z,6.29
2018-04-15T03:01:08.875Z,6.28
2018-04-15T03:02:09.114Z,6.25
2018-04-15T03:03:09.106Z,6.33
2018-04-15T03:04:09.090Z,6.31
2018-04-15T03:05:09.084Z,6.24
2018-04-15T03:06:08.811Z,6.26
2018-04-15T03:07:09.052Z,6.25
2018-04-15T03:08:09.040Z,6.39
2018-04-15T03:09:09.041Z,6.42
2018-04-15T03:10:09.012Z,6.33
2018-04-15T03:11:08.741Z,6.37
2018-04-15T03:12:08.989Z,6.39
2018-04-15T03:13:08.975Z,6.29
2018-04-15T03:14:08.974Z,6.36
2018-04-15T03:15:08.690Z,6.36
2018-04-15T03:16:08.680Z,6.21
2018-04-15T03:17:08.920Z,6.37
2018-04-15T03:18:08.657Z,6.25
2018-04-15T03:19:08.642Z,6.28
2018-04-15T03:20:08.369Z,6.44
2018-04-15T03:21:08.869Z,6.33
2018-04-15T03:22:08.881Z,6.21
2018-04-15T03:23:08.849Z,6.34
2018-04-15T03:24:08.836Z,6.21
2018-04-15T03:25:08.310Z,6.28
2018-04-15T03:26:08.553Z,6.28
2018-04-15T03:27:08.538Z,6.24
2018-04-15T03:28:08.276Z,6.2
2018-04-15T03:29:08.515Z,6.2
2018-04-15T03:30:08.508Z,6.17
2018-04-15T03:31:08.747Z,6.17
2018-04-15T03:32:08.218Z,6.17
2018-04-15T03:33:08.461Z,6.18
2018-04-15T03:34:08.707Z,6.13
2018-04-15T03:35:08.439Z,6.13
2018-04-15T03:36:08.685Z,6.1
2018-04-15T03:37:08.415Z,6.15
2018-04-15T03:38:08.400Z,6.09
2018-04-15T03:39:08.389Z,6.15
2018-04-15T03:40:08.377Z,6.1
2018-04-15T03:41:08.627Z,6.07
2018-04-15T03:42:08.604Z,6.09
2018-04-15T03:43:08.337Z,6.09
2018-04-15T03:44:08.343Z,6.15
2018-04-15T03:45:08.563Z,6.1
2018-04-15T03:46:08.556Z,6.15
2018-04-15T03:47:08.282Z,6.14
2018-04-15T03:48:08.526Z,6.13
2018-04-15T03:49:07.998Z,6.05
2018-04-15T03:50:08.245Z,6.03
2018-04-15T03:51:08.231Z,6
2018-04-15T03:52:07.959Z,5.98
2018-04-15T03:53:08.472Z,6.03
2018-04-15T03:54:08.450Z,6
2018-04-15T03:55:08.445Z,5.95
2018-04-15T03:56:08.165Z,5.99
2018-04-15T03:57:08.159Z,6.05
2018-04-15T03:58:08.149Z,5.89
2018-04-15T03:59:08.389Z,5.91
2018-04-15T04:00:08.113Z,5.92
2018-04-15T04:01:07.844Z,5.95
2018-04-15T04:02:08.346Z,5.92
2018-04-15T04:03:07.822Z,5.91
2018-04-15T04:04:08.067Z,5.92
2018-04-15T04:05:08.307Z,5.88
2018-04-15T04:06:08.303Z,5.87
2018-04-15T04:07:08.042Z,5.92
2018-04-15T04:08:08.269Z,5.88
2018-04-15T04:09:08.256Z,5.84
2018-04-15T04:10:07.991Z,5.87
2018-04-15T04:11:07.974Z,5.89
2018-04-15T04:12:08.218Z,5.8
2018-04-15T04:13:08.209Z,5.82
2018-04-15T04:14:07.934Z,5.84
2018-04-15T04:15:07.921Z,5.85
2018-04-15T04:16:07.917Z,5.85
2018-04-15T04:17:08.152Z,5.8
2018-04-15T04:18:07.882Z,5.89
2018-04-15T04:19:07.929Z,5.81
2018-04-15T04:20:07.856Z,5.81
2018-04-15T04:21:07.847Z,5.81
2018-04-15T04:22:07.834Z,5.85
2018-04-15T04:23:07.817Z,5.87
2018-04-15T04:24:07.554Z,5.77
2018-04-15T04:25:08.065Z,5.84
2018-04-15T04:26:07.780Z,5.84
2018-04-15T04:27:07.509Z,5.77
2018-04-15T04:28:07.764Z,5.81
2018-04-15T04:29:07.743Z,5.89
2018-04-15T04:30:07.727Z,5.84
2018-04-15T04:31:07.713Z,5.96
2018-04-15T04:32:07.963Z,5.89
2018-04-15T04:33:07.699Z,5.85
2018-04-15T04:34:07.678Z,5.91
2018-04-15T04:35:07.660Z,5.99
2018-04-15T04:36:07.649Z,6.02
2018-04-15T04:37:07.893Z,6.02
2018-04-15T04:38:07.883Z,6.07
2018-04-15T04:39:07.611Z,6.14
2018-04-15T04:40:07.600Z,6.14
2018-04-15T04:41:07.843Z,6.15
2018-04-15T04:42:07.583Z,6.17
2018-04-15T04:43:07.829Z,6.25
2018-04-15T04:44:07.287Z,6.26
2018-04-15T04:45:07.637Z,6.33
2018-04-15T04:46:07.520Z,6.34
2018-04-15T04:47:07.776Z,6.46
2018-04-15T04:48:07.496Z,6.44
2018-04-15T04:49:07.485Z,6.46
2018-04-15T04:50:07.469Z,6.51
2018-04-15T04:51:07.714Z,6.52
2018-04-15T04:52:07.710Z,6.58
2018-04-15T04:53:07.689Z,6.54
2018-04-15T04:54:07.416Z,6.6
2018-04-15T04:55:07.408Z,6.61
2018-04-15T04:56:07.403Z,6.7
2018-04-15T04:57:07.121Z,6.72
2018-04-15T04:58:07.622Z,6.76
2018-04-15T04:59:07.614Z,6.86
2018-04-15T05:00:07.606Z,6.83
2018-04-15T05:01:07.328Z,6.85
2018-04-15T05:02:07.575Z,6.97
2018-04-15T05:03:07.303Z,6.95
2018-04-15T05:04:07.035Z,7.11
2018-04-15T05:05:07.020Z,7.13
2018-04-15T05:06:07.267Z,7.15
2018-04-15T05:07:06.996Z,7.26
2018-04-15T05:08:07.503Z,7.21
2018-04-15T05:09:07.225Z,7.27
2018-04-15T05:10:07.220Z,7.37
2018-04-15T05:11:07.462Z,7.4
2018-04-15T05:12:07.187Z,7.31
2018-04-15T05:13:06.923Z,7.37
2018-04-15T05:14:07.168Z,7.45
2018-04-15T05:15:07.157Z,7.54
2018-04-15T05:16:07.145Z,7.49
2018-04-15T05:17:07.469Z,7.59
2018-04-15T05:18:07.123Z,7.68
2018-04-15T05:19:07.369Z,7.68
2018-04-15T05:20:07.091Z,7.88
2018-04-15T05:21:07.338Z,7.8
2018-04-15T05:22:07.072Z,7.92
2018-04-15T05:23:07.318Z,7.93
2018-04-15T05:24:07.309Z,8.01
2018-04-15T05:25:07.037Z,8.11
2018-04-15T05:26:07.285Z,8.21
2018-04-15T05:27:07.041Z,8.26
2018-04-15T05:28:06.998Z,8.25
2018-04-15T05:29:07.245Z,8.31
2018-04-15T05:30:07.014Z,8.49
2018-04-15T05:31:06.965Z,8.49
2018-04-15T05:32:06.952Z,8.54
2018-04-15T05:33:07.204Z,8.67
2018-04-15T05:34:07.194Z,8.69
2018-04-15T05:35:06.658Z,8.74
2018-04-15T05:36:07.164Z,8.76
2018-04-15T05:37:07.163Z,8.87
2018-04-15T05:38:06.884Z,8.85
2018-04-15T05:39:06.611Z,8.86
2018-04-15T05:40:06.863Z,8.94
2018-04-15T05:41:07.156Z,9
2018-04-15T05:42:06.739Z,8.97
2018-04-15T05:43:07.051Z,9.17
2018-04-15T05:44:06.747Z,9.08
2018-04-15T05:45:06.761Z,9.04
2018-04-15T05:46:07.317Z,9.14
2018-04-15T05:47:06.637Z,9.21
2018-04-15T05:48:07.259Z,9.3
2018-04-15T05:49:07.218Z,9.32
2018-04-15T05:50:07.107Z,9.32
2018-04-15T05:51:06.482Z,9.48
2018-04-15T05:52:06.729Z,9.52
2018-04-15T05:53:06.460Z,9.59
2018-04-15T05:54:06.966Z,9.66
2018-04-15T05:55:06.700Z,9.74
2018-04-15T05:56:06.686Z,9.78
2018-04-15T05:57:06.677Z,9.92
2018-04-15T05:58:06.931Z,9.98
2018-04-15T05:59:06.657Z,10.05
2018-04-15T06:00:06.646Z,10.07
2018-04-15T06:01:06.636Z,10.15
2018-04-15T06:02:06.627Z,10.25
2018-04-15T06:03:06.880Z,10.29
2018-04-15T06:04:06.872Z,10.35
2018-04-15T06:05:06.851Z,10.38
2018-04-15T06:06:06.584Z,10.55
2018-04-15T06:07:06.574Z,10.66
2018-04-15T06:08:06.561Z,10.7
2018-04-15T06:09:06.811Z,10.73
2018-04-15T06:10:06.807Z,10.76
2018-04-15T06:11:06.533Z,10.88
2018-04-15T06:12:06.266Z,10.88
2018-04-15T06:13:06.780Z,10.95
2018-04-15T06:14:06.761Z,11.09
2018-04-15T06:15:06.751Z,11.05
2018-04-15T06:16:06.743Z,11.16
2018-04-15T06:17:06.746Z,11.28
2018-04-15T06:18:06.727Z,11.3
2018-04-15T06:19:06.459Z,11.43
2018-04-15T06:20:06.710Z,11.46
2018-04-15T06:21:06.181Z,11.51
2018-04-15T06:22:06.701Z,11.57
2018-04-15T06:23:06.425Z,11.63
2018-04-15T06:24:06.673Z,11.76
2018-04-15T06:25:06.406Z,11.85
2018-04-15T06:26:06.664Z,12
2018-04-15T06:27:06.388Z,12.1
2018-04-15T06:28:06.377Z,12.22
2018-04-15T06:29:06.621Z,12.36
2018-04-15T06:30:06.097Z,12.37
2018-04-15T06:31:06.351Z,12.41
2018-04-15T06:32:06.088Z,12.48
2018-04-15T06:33:06.336Z,12.58
2018-04-15T06:34:06.063Z,12.71
2018-04-15T06:35:06.316Z,12.69
2018-04-15T06:36:06.049Z,12.84
2018-04-15T06:37:06.299Z,12.92
2018-04-15T06:38:06.564Z,13.07
2018-04-15T06:39:06.288Z,13.24
2018-04-15T06:40:06.279Z,13.44
2018-04-15T06:41:06.271Z,13.84
2018-04-15T06:42:06.517Z,13.95
2018-04-15T06:43:06.254Z,14.2
2018-04-15T06:44:06.245Z,14.46
2018-04-15T06:45:06.494Z,14.93
2018-04-15T06:46:06.502Z,15.41
2018-04-15T06:47:06.222Z,16.04
2018-04-15T06:48:06.470Z,16.47
2018-04-15T06:49:05.948Z,16.84
2018-04-15T06:50:06.462Z,16.88
2018-04-15T06:51:06.199Z,16.95
2018-04-15T06:52:06.448Z,16.95
2018-04-15T06:53:06.438Z,17.03
2018-04-15T06:54:06.435Z,17.09
2018-04-15T06:55:06.445Z,16.95
2018-04-15T06:56:06.430Z,16.94
2018-04-15T06:57:06.419Z,16.74
2018-04-15T06:58:06.413Z,16.91
2018-04-15T06:59:06.416Z,16.94
2018-04-15T07:00:06.171Z,16.97
2018-04-15T07:01:06.139Z,17.07
2018-04-15T07:02:06.132Z,17.22
2018-04-15T07:03:06.394Z,17.4
2018-04-15T07:04:06.400Z,17.6
2018-04-15T07:05:06.380Z,17.84
2018-04-15T07:06:05.853Z,17.83
2018-04-15T07:07:06.378Z,17.84
2018-04-15T07:08:06.366Z,17.83
2018-04-15T07:09:06.099Z,17.83
2018-04-15T07:10:06.089Z,17.69
2018-04-15T07:11:05.828Z,17.66
2018-04-15T07:12:06.344Z,17.69
2018-04-15T07:13:06.343Z,17.65
2018-04-15T07:14:06.080Z,17.68
2018-04-15T07:15:06.077Z,17.74
2018-04-15T07:16:06.068Z,17.83
2018-04-15T07:17:06.317Z,18.02
2018-04-15T07:18:05.801Z,18.08
2018-04-15T07:19:06.320Z,18.17
2018-04-15T07:20:06.054Z,18.35
2018-04-15T07:21:06.304Z,18.65
2018-04-15T07:22:06.042Z,18.84
2018-04-15T07:23:05.782Z,19.25
2018-04-15T07:24:06.296Z,19.49
2018-04-15T07:25:06.293Z,19.79
2018-04-15T07:26:06.034Z,19.93
2018-04-15T07:27:06.286Z,20.25
2018-04-15T07:28:06.286Z,20.29
2018-04-15T07:29:06.285Z,20.42
2018-04-15T07:30:06.270Z,20.51
2018-04-15T07:31:06.285Z,20.35
2018-04-15T07:32:06.260Z,20.18
2018-04-15T07:33:06.261Z,19.83
2018-04-15T07:34:06.260Z,19.71
2018-04-15T07:35:06.253Z,19.53
2018-04-15T07:36:06.249Z,19.35
2018-04-15T07:37:06.247Z,19.25
2018-04-15T07:38:06.255Z,19.16
2018-04-15T07:39:05.725Z,19.02
2018-04-15T07:40:05.981Z,18.93
2018-04-15T07:41:05.976Z,18.96
2018-04-15T07:42:06.232Z,18.84
2018-04-15T07:43:05.970Z,18.87
2018-04-15T07:44:05.969Z,18.81
2018-04-15T07:45:05.705Z,18.69
2018-04-15T07:46:06.221Z,18.68
2018-04-15T07:47:05.961Z,18.65
2018-04-15T07:48:05.965Z,18.41
2018-04-15T07:49:05.959Z,18.29
2018-04-15T07:50:05.944Z,18.27
2018-04-15T07:51:05.947Z,18.21
2018-04-15T07:52:05.941Z,18.21
2018-04-15T07:53:05.940Z,18.21
2018-04-15T07:54:05.937Z,18.11
2018-04-15T07:55:05.936Z,18.2
2018-04-15T07:56:05.931Z,18.02
2018-04-15T07:57:05.671Z,18.06
2018-04-15T07:58:05.930Z,18.01
2018-04-15T07:59:05.928Z,18.05
2018-04-15T08:00:05.920Z,17.98
2018-04-15T08:01:06.177Z,17.94
2018-04-15T08:02:05.910Z,17.92
2018-04-15T08:03:05.907Z,17.83
2018-04-15T08:04:05.911Z,17.96
2018-04-15T08:05:06.160Z,18.02
2018-04-15T08:06:05.644Z,17.98
2018-04-15T08:07:05.901Z,18.01
2018-04-15T08:08:06.154Z,18.02
2018-04-15T08:09:06.151Z,18.01
2018-04-15T08:10:06.145Z,17.95
2018-04-15T08:11:06.141Z,17.88
2018-04-15T08:12:05.888Z,17.94
2018-04-15T08:13:06.147Z,17.9
2018-04-15T08:14:06.336Z,17.84
2018-04-15T08:15:05.887Z,17.84
2018-04-15T08:16:05.620Z,17.83
2018-04-15T08:17:05.919Z,17.95
2018-04-15T08:18:05.868Z,18.05
2018-04-15T08:19:06.119Z,18.17
2018-04-15T08:20:05.603Z,18.23
2018-04-15T08:21:05.862Z,18.32
2018-04-15T08:22:05.853Z,18.24
2018-04-15T08:23:05.848Z,18.42
2018-04-15T08:24:06.110Z,18.49
2018-04-15T08:25:06.104Z,18.47
2018-04-15T08:26:06.102Z,18.53
2018-04-15T08:27:05.837Z,18.59
2018-04-15T08:28:05.838Z,18.65
2018-04-15T08:29:06.093Z,18.65
2018-04-15T08:30:05.831Z,18.68
2018-04-15T08:31:05.850Z,18.71
2018-04-15T08:32:05.823Z,18.71
2018-04-15T08:33:06.076Z,18.75
2018-04-15T08:34:06.080Z,18.89
2018-04-15T08:35:06.085Z,18.89
2018-04-15T08:36:05.816Z,19.02
2018-04-15T08:37:05.808Z,19.06
2018-04-15T08:38:05.810Z,19.12
2018-04-15T08:39:05.807Z,19.2
2018-04-15T08:40:06.062Z,19.24
2018-04-15T08:41:05.544Z,19.25
2018-04-15T08:42:05.807Z,19.24
2018-04-15T08:43:06.053Z,19.25
2018-04-15T08:44:05.537Z,19.25
2018-04-15T08:45:05.798Z,19.25
2018-04-15T08:46:06.052Z,19.35
2018-04-15T08:47:05.786Z,19.34
2018-04-15T08:48:05.788Z,19.53
2018-04-15T08:49:05.782Z,19.52
2018-04-15T08:50:05.795Z,19.46
2018-04-15T08:51:06.038Z,19.55
2018-04-15T08:52:05.519Z,19.46
2018-04-15T08:53:05.518Z,19.32
2018-04-15T08:54:05.784Z,19.27
2018-04-15T08:55:06.034Z,19.19
2018-04-15T08:56:06.033Z,19.2
2018-04-15T08:57:06.025Z,19.15
2018-04-15T08:58:05.509Z,19.07
2018-04-15T08:59:05.764Z,19.02
2018-04-15T09:00:06.024Z,18.99
2018-04-15T09:01:06.016Z,19
2018-04-15T09:02:06.018Z,19.09
2018-04-15T09:03:05.496Z,19.24
2018-04-15T09:04:06.016Z,19.31
2018-04-15T09:05:06.010Z,19.49
2018-04-15T09:06:05.754Z,19.5
2018-04-15T09:07:05.489Z,19.49
2018-04-15T09:08:06.003Z,19.46
2018-04-15T09:09:06.178Z,19.53
2018-04-15T09:10:06.014Z,19.46
2018-04-15T09:11:05.741Z,19.42
2018-04-15T09:12:05.999Z,19.53
2018-04-15T09:13:05.741Z,19.64
2018-04-15T09:14:05.732Z,19.53
2018-04-15T09:15:05.738Z,19.65
2018-04-15T09:16:05.732Z,19.64
2018-04-15T09:17:05.986Z,19.55
2018-04-15T09:18:05.988Z,19.65
2018-04-15T09:19:05.988Z,19.65
2018-04-15T09:20:05.989Z,19.63
2018-04-15T09:21:05.725Z,19.46
2018-04-15T09:22:05.719Z,19.43
2018-04-15T09:23:05.981Z,19.34
2018-04-15T09:24:05.728Z,19.24
2018-04-15T09:25:05.718Z,19.24
2018-04-15T09:26:05.714Z,19.16
2018-04-15T09:27:05.454Z,18.96
2018-04-15T09:28:05.710Z,18.86
2018-04-15T09:29:05.708Z,18.87
2018-04-15T09:30:05.746Z,18.74
2018-04-15T09:31:05.965Z,18.61
2018-04-15T09:32:05.703Z,18.65
2018-04-15T09:33:05.961Z,18.66
2018-04-15T09:34:05.441Z,18.63
2018-04-15T09:35:05.965Z,18.76
2018-04-15T09:36:05.693Z,18.65
2018-04-15T09:37:05.952Z,18.81
2018-04-15T09:38:05.946Z,18.99
2018-04-15T09:39:05.713Z,19.1
2018-04-15T09:40:05.685Z,19.12
2018-04-15T09:41:05.747Z,19.24
2018-04-15T09:42:05.940Z,19.07
2018-04-15T09:43:05.680Z,18.97
2018-04-15T09:44:05.936Z,18.97
2018-04-15T09:45:05.931Z,19.09
2018-04-15T09:46:05.413Z,19.2
2018-04-15T09:47:05.680Z,19.24
2018-04-15T09:48:05.929Z,19.3
2018-04-15T09:49:05.683Z,19.34
2018-04-15T09:50:05.921Z,19.35
2018-04-15T09:51:05.922Z,19.46
2018-04-15T09:52:05.914Z,19.6
2018-04-15T09:53:05.913Z,19.74
2018-04-15T09:54:05.909Z,19.74
2018-04-15T09:55:05.649Z,19.93
2018-04-15T09:56:05.649Z,20
2018-04-15T09:57:05.911Z,20.1
2018-04-15T09:58:05.908Z,20.3
2018-04-15T09:59:05.912Z,20.41
2018-04-15T10:00:05.900Z,20.58
2018-04-15T10:01:05.900Z,20.72
2018-04-15T10:02:05.897Z,20.91
2018-04-15T10:03:05.382Z,20.98
2018-04-15T10:04:05.891Z,21.03
2018-04-15T10:05:05.894Z,21.08
2018-04-15T10:06:05.633Z,21.33
2018-04-15T10:07:05.633Z,21.31
2018-04-15T10:08:05.890Z,21.43
2018-04-15T10:09:05.883Z,21.4
2018-04-15T10:10:05.625Z,21.49
2018-04-15T10:11:05.628Z,21.41
2018-04-15T10:12:05.623Z,21.48
2018-04-15T10:13:05.623Z,21.41
2018-04-15T10:14:05.882Z,21.38
2018-04-15T10:15:05.882Z,21.41
2018-04-15T10:16:05.619Z,21.4
2018-04-15T10:17:05.878Z,21.41
2018-04-15T10:18:05.626Z,21.27
2018-04-15T10:19:05.880Z,21.27
2018-04-15T10:20:05.879Z,21.27
2018-04-15T10:21:05.874Z,21.22
2018-04-15T10:22:05.874Z,21.15
2018-04-15T10:23:05.873Z,21.01
2018-04-15T10:24:05.387Z,20.91
2018-04-15T10:25:05.610Z,21.04
2018-04-15T10:26:05.618Z,21.16
2018-04-15T10:27:05.616Z,21.3
2018-04-15T10:28:05.870Z,21.46
2018-04-15T10:29:05.611Z,21.37
2018-04-15T10:30:05.870Z,21.36
2018-04-15T10:31:05.611Z,21.41
2018-04-15T10:32:05.872Z,21.25
2018-04-15T10:33:05.609Z,21.22
2018-04-15T10:34:05.615Z,21.27
2018-04-15T10:35:05.866Z,21.25
2018-04-15T10:36:05.613Z,21.3
2018-04-15T10:37:05.610Z,21.12
2018-04-15T10:38:05.617Z,21.15
2018-04-15T10:39:05.868Z,21.09
2018-04-15T10:40:05.612Z,21.12
2018-04-15T10:41:05.615Z,21.04
2018-04-15T10:42:05.606Z,21.08
2018-04-15T10:43:05.866Z,20.9
2018-04-15T10:44:05.609Z,20.93
2018-04-15T10:45:05.864Z,21.01
2018-04-15T10:46:05.662Z,21.03
2018-04-15T10:47:05.348Z,20.88
2018-04-15T10:48:05.606Z,20.82
2018-04-15T10:49:05.873Z,20.72
2018-04-15T10:50:05.347Z,20.66
2018-04-15T10:51:05.857Z,20.56
2018-04-15T10:52:05.605Z,20.54
2018-04-15T10:53:05.606Z,20.49
2018-04-15T10:54:05.601Z,20.53
2018-04-15T10:55:05.865Z,20.44
2018-04-15T10:56:05.595Z,20.53
2018-04-15T10:57:05.858Z,20.64
2018-04-15T10:58:05.862Z,20.68
2018-04-15T10:59:05.859Z,20.68
2018-04-15T11:00:05.597Z,20.76
2018-04-15T11:01:05.339Z,20.82
2018-04-15T11:02:05.598Z,20.75
2018-04-15T11:03:05.860Z,20.74
2018-04-15T11:04:05.863Z,20.6
2018-04-15T11:05:05.600Z,20.48
2018-04-15T11:06:05.335Z,20.35
2018-04-15T11:07:05.857Z,20.3
2018-04-15T11:08:05.851Z,20.05
2018-04-15T11:09:05.849Z,20.07
2018-04-15T11:10:05.600Z,20
2018-04-15T11:11:05.333Z,19.86
2018-04-15T11:12:05.589Z,19.87
2018-04-15T11:13:05.845Z,19.68
2018-04-15T11:14:05.414Z,19.67
2018-04-15T11:15:05.325Z,19.63
2018-04-15T11:16:05.584Z,19.72
2018-04-15T11:17:05.840Z,19.74
2018-04-15T11:18:05.322Z,19.67
2018-04-15T11:19:05.580Z,19.68
2018-04-15T11:20:06.016Z,19.74
2018-04-15T11:21:05.577Z,19.78
2018-04-15T11:22:05.834Z,19.78
2018-04-15T11:23:05.838Z,19.82
2018-04-15T11:24:05.835Z,19.86
2018-04-15T11:25:05.318Z,19.86
2018-04-15T11:26:05.829Z,19.85
2018-04-15T11:27:05.833Z,19.93
2018-04-15T11:28:05.835Z,20.04
2018-04-15T11:29:05.898Z,20.07
2018-04-15T11:30:05.573Z,20.04
2018-04-15T11:31:05.832Z,20.15
2018-04-15T11:32:05.566Z,20.12
2018-04-15T11:33:05.567Z,20.23
2018-04-15T11:34:05.560Z,20.41
2018-04-15T11:35:05.563Z,20.46
2018-04-15T11:36:05.816Z,20.46
2018-04-15T11:37:05.559Z,20.6
2018-04-15T11:38:05.567Z,20.64
2018-04-15T11:39:05.556Z,20.78
2018-04-15T11:40:05.557Z,20.83
2018-04-15T11:41:05.550Z,21
2018-04-15T11:42:05.327Z,21.01
2018-04-15T11:43:05.814Z,21.15
2018-04-15T11:44:05.806Z,21.3
2018-04-15T11:45:05.809Z,21.28
2018-04-15T11:46:05.549Z,21.31
2018-04-15T11:47:05.813Z,21.48
2018-04-15T11:48:05.808Z,21.4
2018-04-15T11:49:05.807Z,21.41
2018-04-15T11:50:05.550Z,21.36
2018-04-15T11:51:05.551Z,21.27
2018-04-15T11:52:05.546Z,21.23
2018-04-15T11:53:05.548Z,21.25
2018-04-15T11:54:05.547Z,21.3
2018-04-15T11:55:05.551Z,21.3
2018-04-15T11:56:05.807Z,21.36
2018-04-15T11:57:05.547Z,21.37
2018-04-15T11:58:05.550Z,21.4
2018-04-15T11:59:05.544Z,21.41
2018-04-15T12:00:05.548Z,21.46
2018-04-15T12:01:05.805Z,21.4
2018-04-15T12:02:05.805Z,21.34
2018-04-15T12:03:05.547Z,21.46
2018-04-15T12:04:05.802Z,21.48
2018-04-15T12:05:05.841Z,21.38
2018-04-15T12:06:05.550Z,21.34
2018-04-15T12:07:05.285Z,21.27
2018-04-15T12:08:05.285Z,21.23
2018-04-15T12:09:05.548Z,21.21
2018-04-15T12:10:05.811Z,21.16
2018-04-15T12:11:05.540Z,21.19
2018-04-15T12:12:05.545Z,21.34
2018-04-15T12:13:05.805Z,21.34
2018-04-15T12:14:05.543Z,21.36
2018-04-15T12:15:05.550Z,21.37
2018-04-15T12:16:05.549Z,21.18
2018-04-15T12:17:05.806Z,21.18
2018-04-15T12:18:05.807Z,21.15
2018-04-15T12:19:05.543Z,21.16
2018-04-15T12:20:05.799Z,21.04
2018-04-15T12:21:05.550Z,21.04
2018-04-15T12:22:05.805Z,20.9
2018-04-15T12:23:05.543Z,20.85
2018-04-15T12:24:05.798Z,20.82
2018-04-15T12:25:05.806Z,20.67
2018-04-15T12:26:05.545Z,20.76
2018-04-15T12:27:05.801Z,20.75
2018-04-15T12:28:05.797Z,20.75
2018-04-15T12:29:05.548Z,20.71
2018-04-15T12:30:05.284Z,20.53
2018-04-15T12:31:05.542Z,20.54
2018-04-15T12:32:05.798Z,20.49
2018-04-15T12:33:05.544Z,20.34
2018-04-15T12:34:05.281Z,20.23
2018-04-15T12:35:05.804Z,20.15
2018-04-15T12:36:05.539Z,20.25
2018-04-15T12:37:05.809Z,20.08
2018-04-15T12:38:05.798Z,20.12
2018-04-15T12:39:05.281Z,20.16
2018-04-15T12:40:05.541Z,20.16
2018-04-15T12:41:05.577Z,20.08
2018-04-15T12:42:05.535Z,20.04
2018-04-15T12:43:05.794Z,20.05
2018-04-15T12:44:05.805Z,20.15
2018-04-15T12:45:05.547Z,20.16
2018-04-15T12:46:05.789Z,20.16
2018-04-15T12:47:05.532Z,20.05
2018-04-15T12:48:05.538Z,20.04
2018-04-15T12:49:05.534Z,19.97
2018-04-15T12:50:05.268Z,19.93
2018-04-15T12:51:05.534Z,19.82
2018-04-15T12:52:05.533Z,19.83
2018-04-15T12:53:05.784Z,19.87
2018-04-15T12:54:05.528Z,19.83
2018-04-15T12:55:05.524Z,19.82
2018-04-15T12:56:05.795Z,19.74
2018-04-15T12:57:05.259Z,19.75
2018-04-15T12:58:05.518Z,19.7
2018-04-15T12:59:05.520Z,19.67
2018-04-15T13:00:05.255Z,19.65
2018-04-15T13:01:05.794Z,19.68
2018-04-15T13:02:05.776Z,19.72
2018-04-15T13:03:05.770Z,19.82
2018-04-15T13:04:05.766Z,19.85
2018-04-15T13:05:05.254Z,19.78
2018-04-15T13:06:05.903Z,19.86
2018-04-15T13:07:05.770Z,19.85